Time;durP1;ratioP1;P1;durP2;ratioP2;P2;SDS_P1;SDS_P2;PMS_P1;PMS_P2;Temp;Humidity;BMP_temperature;BMP_pressure;BME280_temperature;BME280_humidity;BME280_pressure;Samples;Min_cycle;Max_cycle;Signal;HPM_P1;HPM_P2
2023/09/03 00:01:53;;;;;;;20.23;17.03;;;17.20;99.90;;;;;;5073872;28;20459;-80
2023/09/03 00:04:20;;;;;;;21.90;19.17;;;17.20;99.90;;;;;;5061021;28;20986;-81
2023/09/03 00:06:47;;;;;;;22.33;19.93;;;17.20;99.90;;;;;;5059100;28;20457;-81
2023/09/03 00:09:16;;;;;;;23.67;20.70;;;17.10;99.90;;;;;;5061434;28;20464;-81
2023/09/03 00:11:43;;;;;;;22.33;19.90;;;17.10;99.90;;;;;;5039665;28;20441;-81
2023/09/03 00:14:10;;;;;;;23.53;20.53;;;17.10;99.90;;;;;;5051312;28;20538;-81
2023/09/03 00:16:36;;;;;;;21.33;19.10;;;17.10;99.90;;;;;;5059465;28;20457;-81
2023/09/03 00:19:03;;;;;;;21.90;19.60;;;17.10;99.90;;;;;;5077615;28;21002;-81
2023/09/03 00:21:30;;;;;;;22.90;19.83;;;17.00;99.90;;;;;;5079668;28;20443;-80
2023/09/03 00:23:57;;;;;;;22.83;20.10;;;17.00;99.90;;;;;;5079137;28;21019;-81
2023/09/03 00:26:27;;;;;;;23.90;19.83;;;17.00;99.90;;;;;;5075073;28;20976;-81
2023/09/03 00:28:54;;;;;;;23.67;19.97;;;17.00;99.90;;;;;;5059310;28;20609;-81
2023/09/03 00:31:23;;;;;;;22.00;19.70;;;17.00;99.90;;;;;;5059132;28;20454;-81
2023/09/03 00:33:50;;;;;;;22.60;19.10;;;17.00;99.90;;;;;;5060836;28;20474;-81
2023/09/03 00:36:17;;;;;;;21.83;19.40;;;17.00;99.90;;;;;;5058756;28;20451;-81
2023/09/03 00:38:43;;;;;;;23.03;20.70;;;16.90;99.90;;;;;;5059512;28;20480;-81
2023/09/03 00:41:10;;;;;;;23.90;20.10;;;16.90;99.90;;;;;;5059322;28;20452;-81
2023/09/03 00:43:38;;;;;;;22.10;19.70;;;16.90;99.90;;;;;;5074373;28;20486;-81
2023/09/03 00:46:08;;;;;;;20.97;18.67;;;16.90;99.90;;;;;;5058221;28;20467;-79
2023/09/03 00:48:36;;;;;;;25.80;20.03;;;16.90;99.90;;;;;;5076090;28;20471;-81
2023/09/03 00:51:07;;;;;;;21.20;18.73;;;16.80;99.90;;;;;;5078569;28;20449;-80
2023/09/03 00:53:35;;;;;;;23.07;20.20;;;16.80;99.90;;;;;;5062117;28;20442;-81
2023/09/03 00:56:02;;;;;;;26.67;21.60;;;16.80;99.90;;;;;;5054365;28;20482;-81
2023/09/03 00:58:29;;;;;;;25.60;20.87;;;16.80;99.90;;;;;;5048373;28;20509;-81
2023/09/03 01:00:57;;;;;;;23.47;20.77;;;16.80;99.90;;;;;;5050563;28;20465;-81
2023/09/03 01:03:26;;;;;;;25.83;19.83;;;16.80;99.90;;;;;;5059073;28;20492;-81
2023/09/03 01:05:52;;;;;;;26.40;20.80;;;16.80;99.90;;;;;;5063968;28;20884;-79
2023/09/03 01:08:20;;;;;;;22.50;19.30;;;16.80;99.90;;;;;;5068929;28;20909;-81
2023/09/03 01:10:54;;;;;;;23.43;20.90;;;16.80;99.90;;;;;;5063657;28;20574;-81
2023/09/03 01:13:27;;;;;;;22.20;19.90;;;16.80;99.90;;;;;;5080501;28;20489;-83
2023/09/03 01:15:58;;;;;;;23.53;19.70;;;16.80;99.90;;;;;;5091239;28;20466;-79
2023/09/03 01:18:27;;;;;;;24.37;20.40;;;16.70;99.90;;;;;;5070607;28;20467;-81
2023/09/03 01:21:17;;;;;;;27.73;21.53;;;16.70;99.90;;;;;;5062239;28;20523;-81
2023/09/03 01:23:51;;;;;;;24.70;21.97;;;16.70;99.90;;;;;;5078722;28;20530;-81
2023/09/03 01:26:38;;;;;;;23.17;20.00;;;16.70;99.90;;;;;;5078005;28;20535;-82
2023/09/03 01:29:07;;;;;;;27.77;21.20;;;16.70;99.90;;;;;;5065441;28;20960;-82
2023/09/03 01:31:35;;;;;;;22.17;19.57;;;16.70;99.90;;;;;;5067794;28;20454;-81
2023/09/03 01:34:03;;;;;;;22.47;20.00;;;16.70;99.90;;;;;;5066253;28;20539;-81
2023/09/03 01:36:32;;;;;;;20.53;18.33;;;16.70;99.90;;;;;;5068922;28;20459;-80
2023/09/03 01:39:01;;;;;;;21.93;19.63;;;16.70;99.90;;;;;;5058353;28;20560;-80
2023/09/03 01:41:28;;;;;;;22.73;19.90;;;16.70;99.90;;;;;;5067053;28;20453;-81
2023/09/03 01:43:55;;;;;;;23.77;19.73;;;16.70;99.90;;;;;;5065604;28;20482;-81
2023/09/03 01:46:31;;;;;;;23.73;19.50;;;16.70;99.90;;;;;;5060380;28;20460;-80
2023/09/03 01:49:05;;;;;;;22.30;18.53;;;16.70;99.90;;;;;;5068991;28;20548;-81
2023/09/03 01:51:38;;;;;;;21.43;18.93;;;16.70;99.90;;;;;;5062773;28;20523;-81
2023/09/03 01:54:12;;;;;;;21.50;19.20;;;16.70;99.90;;;;;;5064910;28;20530;-82
2023/09/03 01:56:43;;;;;;;26.17;19.17;;;16.70;99.90;;;;;;5060528;28;20447;-81
2023/09/03 01:59:18;;;;;;;21.70;18.87;;;16.70;99.90;;;;;;5060012;28;20463;-81
2023/09/03 02:01:47;;;;;;;19.83;17.70;;;16.70;99.90;;;;;;5068228;28;20458;-81
2023/09/03 02:04:14;;;;;;;22.87;19.10;;;16.70;99.90;;;;;;5055297;28;20869;-81
2023/09/03 02:06:45;;;;;;;21.17;18.70;;;16.60;99.90;;;;;;5058327;28;20463;-80
2023/09/03 02:09:13;;;;;;;21.50;19.20;;;16.60;99.90;;;;;;5066959;28;21030;-80
2023/09/03 02:11:39;;;;;;;22.87;19.13;;;16.60;99.90;;;;;;5068104;28;20456;-80
2023/09/03 02:14:06;;;;;;;22.10;18.77;;;16.60;99.90;;;;;;5069064;28;20449;-80
2023/09/03 02:16:33;;;;;;;20.60;18.40;;;16.60;99.90;;;;;;5055890;28;20452;-80
2023/09/03 02:19:01;;;;;;;21.47;17.97;;;16.50;99.90;;;;;;5060749;28;20478;-81
2023/09/03 02:21:28;;;;;;;21.60;19.30;;;16.50;99.90;;;;;;5072759;28;20503;-81
2023/09/03 02:23:55;;;;;;;21.27;18.10;;;16.50;99.90;;;;;;5056567;28;20488;-80
2023/09/03 02:26:22;;;;;;;25.13;19.83;;;16.50;99.90;;;;;;5068629;28;20457;-81
2023/09/03 02:28:49;;;;;;;20.33;18.03;;;16.50;99.90;;;;;;5061485;28;20491;-81
2023/09/03 02:31:16;;;;;;;20.70;17.40;;;16.50;99.90;;;;;;5065247;28;20459;-80
2023/09/03 02:33:42;;;;;;;20.20;18.10;;;16.40;99.90;;;;;;5076464;28;20443;-81
2023/09/03 02:36:11;;;;;;;23.87;18.37;;;16.40;99.90;;;;;;5076845;28;20449;-80
2023/09/03 02:38:37;;;;;;;20.03;17.87;;;16.40;99.90;;;;;;5076675;28;20466;-81
2023/09/03 02:41:04;;;;;;;24.53;18.90;;;16.40;99.90;;;;;;5063732;28;20841;-80
2023/09/03 02:43:31;;;;;;;20.70;18.57;;;16.30;99.90;;;;;;5071588;28;20506;-80
2023/09/03 02:45:58;;;;;;;24.40;19.97;;;16.30;99.90;;;;;;5056114;28;20459;-81
2023/09/03 02:48:24;;;;;;;22.70;18.00;;;16.30;99.90;;;;;;5057896;28;20512;-80
2023/09/03 02:50:51;;;;;;;20.93;17.50;;;16.30;99.90;;;;;;5057899;28;20471;-80
2023/09/03 02:53:19;;;;;;;23.47;19.67;;;16.30;99.90;;;;;;5074658;28;20453;-81
2023/09/03 02:55:46;;;;;;;21.43;19.13;;;16.30;99.90;;;;;;5058834;28;20453;-81
2023/09/03 02:58:13;;;;;;;25.97;18.90;;;16.30;99.90;;;;;;5056730;28;21029;-81
2023/09/03 03:00:39;;;;;;;22.03;18.63;;;16.30;99.90;;;;;;5068477;28;20538;-80
2023/09/03 03:03:06;;;;;;;24.27;19.60;;;16.30;99.90;;;;;;5056900;28;20579;-80
2023/09/03 03:05:33;;;;;;;21.67;18.80;;;16.20;99.90;;;;;;5061225;28;20538;-81
2023/09/03 03:08:02;;;;;;;20.80;17.27;;;16.20;99.90;;;;;;5075787;28;20608;-81
2023/09/03 03:10:30;;;;;;;22.87;19.33;;;16.20;99.90;;;;;;5076147;28;20454;-79
2023/09/03 03:12:57;;;;;;;22.40;19.90;;;16.20;99.90;;;;;;5058895;28;20463;-81
2023/09/03 03:15:24;;;;;;;20.50;18.00;;;16.20;99.90;;;;;;5056449;28;20455;-81
2023/09/03 03:17:51;;;;;;;20.97;18.70;;;16.20;99.90;;;;;;5063521;28;20470;-81
2023/09/03 03:20:18;;;;;;;21.90;18.83;;;16.10;99.90;;;;;;5058583;28;20454;-81
2023/09/03 03:22:45;;;;;;;23.70;20.67;;;16.10;99.90;;;;;;5056640;28;20519;-81
2023/09/03 03:25:11;;;;;;;24.20;20.63;;;16.00;99.90;;;;;;5062018;28;20517;-79
2023/09/03 03:27:39;;;;;;;26.20;18.30;;;16.00;99.90;;;;;;5067536;28;20518;-81
2023/09/03 03:30:07;;;;;;;22.90;18.47;;;16.00;99.90;;;;;;5056718;28;20481;-80
2023/09/03 03:32:34;;;;;;;25.00;19.80;;;16.00;99.90;;;;;;5067341;28;20891;-80
2023/09/03 03:35:01;;;;;;;25.00;20.20;;;16.00;99.90;;;;;;5067884;28;20443;-80
2023/09/03 03:37:28;;;;;;;23.40;19.30;;;16.00;99.90;;;;;;5055671;28;20444;-79
2023/09/03 03:39:55;;;;;;;24.17;19.70;;;16.00;99.90;;;;;;5058395;28;20474;-81
2023/09/03 03:42:21;;;;;;;22.60;18.73;;;15.90;99.90;;;;;;5063973;28;20455;-81
2023/09/03 03:44:50;;;;;;;22.30;19.60;;;15.90;99.90;;;;;;5060297;28;20497;-80
2023/09/03 03:47:16;;;;;;;22.90;20.50;;;15.90;99.90;;;;;;5068875;28;20994;-81
2023/09/03 03:49:43;;;;;;;22.10;18.10;;;15.90;99.90;;;;;;5064049;28;20484;-81
2023/09/03 03:52:10;;;;;;;20.10;17.83;;;15.90;99.90;;;;;;5053460;28;20451;-81
2023/09/03 03:54:37;;;;;;;21.10;18.80;;;15.90;99.90;;;;;;5056304;28;20964;-80
2023/09/03 03:57:04;;;;;;;20.20;18.03;;;15.90;99.90;;;;;;5055037;28;20526;-81
2023/09/03 03:59:31;;;;;;;19.93;17.83;;;15.90;99.90;;;;;;5067119;28;20480;-81
2023/09/03 04:01:59;;;;;;;20.63;18.60;;;15.90;99.90;;;;;;5067656;28;20448;-81
2023/09/03 04:04:26;;;;;;;20.93;16.93;;;15.80;99.90;;;;;;5064982;28;21029;-80
2023/09/03 04:06:52;;;;;;;22.67;19.77;;;15.80;99.90;;;;;;5056908;28;20465;-81
2023/09/03 04:09:19;;;;;;;21.57;19.30;;;15.80;99.90;;;;;;5067706;28;20481;-81
2023/09/03 04:11:47;;;;;;;22.27;18.90;;;15.80;99.90;;;;;;5062500;28;20459;-81
2023/09/03 04:14:14;;;;;;;23.67;19.93;;;15.80;99.90;;;;;;5060519;28;20459;-81
2023/09/03 04:16:41;;;;;;;20.70;18.50;;;15.80;99.90;;;;;;5054470;28;20450;-80
2023/09/03 04:19:09;;;;;;;21.93;18.87;;;15.80;99.90;;;;;;5055904;28;20471;-81
2023/09/03 04:21:35;;;;;;;20.20;17.87;;;15.80;99.90;;;;;;5056712;28;20456;-81
2023/09/03 04:24:03;;;;;;;24.57;18.67;;;15.70;99.90;;;;;;5061811;28;20479;-80
2023/09/03 04:26:29;;;;;;;20.03;17.93;;;15.70;99.90;;;;;;5058335;28;20542;-81
2023/09/03 04:28:56;;;;;;;23.13;19.37;;;15.60;99.90;;;;;;5097386;22;20496;-82
2023/09/03 04:31:24;;;;;;;21.90;18.10;;;15.60;99.90;;;;;;5077580;28;20977;-83
2023/09/03 04:33:51;;;;;;;21.43;18.00;;;15.60;99.90;;;;;;5076476;28;20621;-83
2023/09/03 04:36:19;;;;;;;19.17;17.13;;;15.70;99.90;;;;;;5079175;28;20489;-84
2023/09/03 04:38:46;;;;;;;20.50;16.47;;;15.60;99.90;;;;;;5096676;28;20830;-84
2023/09/03 04:41:12;;;;;;;19.13;16.83;;;15.60;99.90;;;;;;5092110;28;20440;-84
2023/09/03 04:43:43;;;;;;;20.40;17.57;;;15.50;99.90;;;;;;5092276;28;20989;-84
2023/09/03 04:46:10;;;;;;;18.00;15.77;;;15.50;99.90;;;;;;5080952;28;20451;-84
2023/09/03 04:48:37;;;;;;;19.27;17.17;;;15.50;99.90;;;;;;5083115;28;20484;-84
2023/09/03 04:51:04;;;;;;;21.43;18.53;;;15.50;99.90;;;;;;5097715;28;20482;-83
2023/09/03 04:53:33;;;;;;;20.47;18.00;;;15.40;99.90;;;;;;5085118;28;20457;-85
2023/09/03 04:56:02;;;;;;;20.80;17.53;;;15.40;99.90;;;;;;5082616;28;20459;-83
2023/09/03 04:58:28;;;;;;;20.03;17.60;;;15.40;99.90;;;;;;5083957;28;20964;-83
2023/09/03 05:00:55;;;;;;;20.60;18.50;;;15.40;99.90;;;;;;5085504;28;20618;-83
2023/09/03 05:03:22;;;;;;;23.87;20.53;;;15.40;99.90;;;;;;5085487;28;20515;-83
2023/09/03 05:05:49;;;;;;;21.93;18.33;;;15.40;99.90;;;;;;5083476;28;20509;-84
2023/09/03 05:08:16;;;;;;;19.70;17.60;;;15.40;99.90;;;;;;5084970;28;20515;-84
2023/09/03 05:10:44;;;;;;;22.63;18.57;;;15.40;99.90;;;;;;5101345;28;20469;-85
2023/09/03 05:13:11;;;;;;;19.60;17.60;;;15.40;99.90;;;;;;5086148;28;20459;-85
2023/09/03 05:15:38;;;;;;;20.50;18.27;;;15.50;99.90;;;;;;5090027;28;20480;-85
2023/09/03 05:18:05;;;;;;;21.77;18.50;;;15.50;99.90;;;;;;5086677;28;20454;-84
2023/09/03 05:20:32;;;;;;;23.07;19.73;;;15.50;99.90;;;;;;5090368;28;20475;-84
2023/09/03 05:22:59;;;;;;;23.03;19.37;;;15.40;99.90;;;;;;5087748;28;20455;-84
2023/09/03 05:25:26;;;;;;;20.67;18.43;;;15.50;99.90;;;;;;5085522;28;21083;-84
2023/09/03 05:27:56;;;;;;;23.80;18.90;;;15.50;99.90;;;;;;5082623;28;20475;-85
2023/09/03 05:30:25;;;;;;;19.60;17.43;;;15.60;99.90;;;;;;5083461;28;20510;-85
2023/09/03 05:32:52;;;;;;;21.23;18.10;;;15.60;99.90;;;;;;5088020;28;20963;-84
2023/09/03 05:35:18;;;;;;;27.20;22.23;;;15.60;99.90;;;;;;5082230;28;20530;-84
2023/09/03 05:37:45;;;;;;;23.00;20.40;;;15.60;99.90;;;;;;5081640;28;20544;-84
2023/09/03 05:40:12;;;;;;;24.57;21.37;;;15.60;99.90;;;;;;5079626;28;20467;-83
2023/09/03 05:42:39;;;;;;;25.77;20.67;;;15.70;99.90;;;;;;5080345;28;20447;-82
2023/09/03 05:45:08;;;;;;;27.53;22.27;;;15.70;99.90;;;;;;5092456;28;20477;-82
2023/09/03 05:47:35;;;;;;;32.60;24.67;;;15.70;99.90;;;;;;5098976;28;20458;-83
2023/09/03 05:50:11;;;;;;;32.23;25.47;;;15.80;99.90;;;;;;5095539;28;20871;-83
2023/09/03 05:52:38;;;;;;;34.03;24.97;;;15.80;99.90;;;;;;5079736;28;20455;-85
2023/09/03 05:55:05;;;;;;;33.50;27.00;;;15.90;99.90;;;;;;5079194;28;20966;-83
2023/09/03 05:57:32;;;;;;;36.60;28.87;;;15.90;99.90;;;;;;5078258;28;20459;-84
2023/09/03 05:59:59;;;;;;;42.53;32.40;;;16.00;99.90;;;;;;5084194;28;20851;-83
2023/09/03 06:02:27;;;;;;;31.90;27.77;;;16.00;99.90;;;;;;5098365;28;20484;-83
2023/09/03 06:04:54;;;;;;;36.23;28.70;;;16.00;99.90;;;;;;5091754;28;20483;-85
2023/09/03 06:07:21;;;;;;;38.60;30.83;;;16.00;99.90;;;;;;5078770;28;20447;-84
2023/09/03 06:09:48;;;;;;;34.97;29.20;;;16.10;99.90;;;;;;5079558;28;20478;-82
2023/09/03 06:12:15;;;;;;;31.40;25.90;;;16.10;99.90;;;;;;5079682;28;20457;-85
2023/09/03 06:14:41;;;;;;;37.80;30.00;;;16.10;99.90;;;;;;5080011;28;20522;-83
2023/09/03 06:17:08;;;;;;;33.00;27.70;;;16.10;99.90;;;;;;5079477;28;20457;-84
2023/09/03 06:19:36;;;;;;;29.50;25.50;;;16.10;99.90;;;;;;5094231;28;20480;-84
2023/09/03 06:22:03;;;;;;;33.50;27.20;;;16.10;99.90;;;;;;5099640;28;20456;-83
2023/09/03 06:24:30;;;;;;;29.10;25.93;;;16.10;99.90;;;;;;5093819;28;20485;-83
2023/09/03 06:26:57;;;;;;;34.13;28.20;;;16.10;99.90;;;;;;5078544;28;20449;-85
2023/09/03 06:29:24;;;;;;;29.40;26.37;;;16.10;99.90;;;;;;5077549;28;20491;-82
2023/09/03 06:31:51;;;;;;;28.50;25.50;;;16.00;99.90;;;;;;5077389;28;20451;-83
2023/09/03 06:34:20;;;;;;;27.87;24.87;;;16.10;99.90;;;;;;5078314;28;20869;-84
2023/09/03 06:36:48;;;;;;;31.07;27.37;;;16.10;99.90;;;;;;5078047;28;20452;-82
2023/09/03 06:39:16;;;;;;;28.97;25.87;;;16.10;99.90;;;;;;5092947;28;20573;-82
2023/09/03 06:41:43;;;;;;;28.97;25.87;;;16.20;99.90;;;;;;5099184;28;20436;-83
2023/09/03 06:44:11;;;;;;;29.50;26.27;;;16.30;99.90;;;;;;5093400;28;20451;-84
2023/09/03 06:46:38;;;;;;;27.57;24.33;;;16.40;99.90;;;;;;5077611;28;20635;-82
2023/09/03 06:49:05;;;;;;;32.10;27.43;;;16.40;99.90;;;;;;5078053;28;20473;-84
2023/09/03 06:51:31;;;;;;;27.53;24.63;;;16.50;99.90;;;;;;5077614;28;20538;-83
2023/09/03 06:54:00;;;;;;;30.57;26.33;;;16.60;99.90;;;;;;5075525;28;20455;-83
2023/09/03 06:56:27;;;;;;;29.80;25.93;;;16.60;99.90;;;;;;5073933;28;20455;-82
2023/09/03 06:58:54;;;;;;;31.50;26.30;;;16.60;99.90;;;;;;5077088;28;20484;-83
2023/09/03 07:01:20;;;;;;;28.70;25.23;;;16.70;99.90;;;;;;5073817;28;20453;-87
2023/09/03 07:03:47;;;;;;;29.40;26.00;;;16.70;99.90;;;;;;5071790;28;20539;-83
2023/09/03 07:06:14;;;;;;;31.30;27.90;;;16.80;99.90;;;;;;5081256;28;20556;-83
2023/09/03 07:08:41;;;;;;;32.40;29.10;;;16.80;99.90;;;;;;5079688;28;20543;-83
2023/09/03 07:11:09;;;;;;;28.27;25.23;;;16.90;99.90;;;;;;5078408;28;20454;-84
2023/09/03 07:13:36;;;;;;;31.00;27.33;;;16.90;99.90;;;;;;5074720;28;20890;-85
2023/09/03 07:16:04;;;;;;;27.90;25.00;;;16.90;99.90;;;;;;5076721;28;20536;-85
2023/09/03 07:18:31;;;;;;;28.73;25.73;;;16.90;99.90;;;;;;5078238;28;20456;-84
2023/09/03 07:21:04;;;;;;;27.63;24.73;;;16.90;99.90;;;;;;5064433;28;20495;-83
2023/09/03 07:23:31;;;;;;;26.93;22.97;;;16.90;99.90;;;;;;5076602;28;20454;-84
2023/09/03 07:26:02;;;;;;;31.27;26.73;;;16.90;99.90;;;;;;5077251;28;20574;-83
2023/09/03 07:28:30;;;;;;;27.63;24.73;;;17.00;99.90;;;;;;5078813;28;20523;-83
2023/09/03 07:30:57;;;;;;;28.47;25.40;;;17.00;99.90;;;;;;5078897;28;20506;-84
2023/09/03 07:33:23;;;;;;;28.13;25.10;;;17.10;99.90;;;;;;5076920;28;20538;-83
2023/09/03 07:35:50;;;;;;;30.30;26.30;;;17.20;99.90;;;;;;5081040;28;20548;-84
2023/09/03 07:38:17;;;;;;;32.40;27.40;;;17.20;99.90;;;;;;5078299;28;20527;-82
2023/09/03 07:40:44;;;;;;;34.60;29.77;;;17.20;99.90;;;;;;5080590;28;20468;-82
2023/09/03 07:43:11;;;;;;;32.53;26.17;;;17.10;99.90;;;;;;5080424;28;20477;-81
2023/09/03 07:45:39;;;;;;;29.20;26.00;;;17.10;99.90;;;;;;5078257;28;20528;-81
2023/09/03 07:48:06;;;;;;;37.37;33.20;;;17.10;99.90;;;;;;5078507;28;20453;-82
2023/09/03 07:50:33;;;;;;;32.50;28.17;;;17.00;99.90;;;;;;5083058;28;20926;-82
2023/09/03 07:53:00;;;;;;;34.20;27.80;;;17.00;99.90;;;;;;5079628;28;20457;-82
2023/09/03 07:55:27;;;;;;;34.40;28.27;;;17.10;99.90;;;;;;5078972;28;20543;-83
2023/09/03 07:57:54;;;;;;;34.57;27.43;;;17.20;99.90;;;;;;5079237;28;20490;-80
2023/09/03 08:00:21;;;;;;;30.33;27.03;;;17.20;99.90;;;;;;5080502;28;20480;-81
2023/09/03 08:02:49;;;;;;;29.60;25.10;;;17.30;99.90;;;;;;5075539;28;20452;-81
2023/09/03 08:05:17;;;;;;;29.20;25.90;;;17.30;99.90;;;;;;5075595;28;20477;-81
2023/09/03 08:07:45;;;;;;;34.73;28.60;;;17.40;99.90;;;;;;5075162;28;20462;-82
2023/09/03 08:10:12;;;;;;;31.30;27.40;;;17.40;99.90;;;;;;5086459;28;20487;-82
2023/09/03 08:12:39;;;;;;;28.20;25.20;;;17.50;99.90;;;;;;5095425;28;20489;-82
2023/09/03 08:15:07;;;;;;;27.73;24.80;;;17.30;99.90;;;;;;5098755;28;20448;-82
2023/09/03 08:17:34;;;;;;;33.40;28.70;;;17.40;99.90;;;;;;5103068;28;20790;-82
2023/09/03 08:20:03;;;;;;;28.10;25.00;;;17.20;99.90;;;;;;5094517;28;20479;-83
2023/09/03 08:22:30;;;;;;;29.00;24.77;;;17.30;99.90;;;;;;5083381;28;20458;-82
2023/09/03 08:24:57;;;;;;;30.47;26.63;;;17.40;99.90;;;;;;5100208;28;20489;-83
2023/09/03 08:27:24;;;;;;;28.10;25.03;;;17.50;99.90;;;;;;5102633;28;20452;-82
2023/09/03 08:29:51;;;;;;;28.57;25.47;;;17.60;99.90;;;;;;5102332;28;20482;-83
2023/09/03 08:32:17;;;;;;;30.27;26.50;;;17.70;99.90;;;;;;5103244;28;20482;-83
2023/09/03 08:34:44;;;;;;;28.57;25.57;;;17.50;99.90;;;;;;5087967;28;20539;-82
2023/09/03 08:37:12;;;;;;;27.97;25.03;;;17.60;99.90;;;;;;5084626;28;20447;-83
2023/09/03 08:39:39;;;;;;;29.67;26.10;;;17.70;99.90;;;;;;5082478;28;20578;-84
2023/09/03 08:42:07;;;;;;;26.57;23.87;;;17.80;99.90;;;;;;5080349;28;20539;-84
2023/09/03 08:44:37;;;;;;;29.17;26.17;;;17.80;99.90;;;;;;5079952;28;20983;-83
2023/09/03 08:47:10;;;;;;;29.60;26.37;;;17.90;99.90;;;;;;5075848;28;20448;-84
2023/09/03 08:49:43;;;;;;;29.73;26.53;;;18.00;99.90;;;;;;5078681;28;20478;-84
2023/09/03 08:52:15;;;;;;;27.27;24.27;;;18.00;99.90;;;;;;5080440;28;20450;-84
2023/09/03 08:54:42;;;;;;;28.00;25.10;;;18.00;99.90;;;;;;5082584;28;20439;-84
2023/09/03 08:57:09;;;;;;;28.73;25.80;;;18.10;99.90;;;;;;5080931;28;20988;-83
2023/09/03 08:59:36;;;;;;;31.93;27.63;;;18.20;99.90;;;;;;5080092;28;20504;-84
2023/09/03 09:02:03;;;;;;;29.40;26.40;;;18.40;99.90;;;;;;5081083;28;20800;-84
2023/09/03 09:04:31;;;;;;;28.77;25.87;;;18.40;99.90;;;;;;5081920;28;20482;-84
2023/09/03 09:06:59;;;;;;;30.23;26.93;;;18.50;99.90;;;;;;5080414;28;20994;-84
2023/09/03 09:09:30;;;;;;;28.17;25.10;;;18.70;99.90;;;;;;5081541;28;20467;-86
2023/09/03 09:12:07;;;;;;;26.47;23.83;;;18.90;99.90;;;;;;5083566;28;20462;-86
2023/09/03 09:14:43;;;;;;;25.63;23.00;;;18.90;99.90;;;;;;5087224;28;20446;-86
2023/09/03 09:17:14;;;;;;;25.37;22.70;;;19.10;99.90;;;;;;5084970;28;20446;-84
2023/09/03 09:19:44;;;;;;;24.87;22.47;;;19.20;99.90;;;;;;5077606;28;20477;-84
2023/09/03 09:22:11;;;;;;;24.70;21.93;;;19.30;99.90;;;;;;5082423;28;20442;-85
2023/09/03 09:24:44;;;;;;;24.50;22.00;;;19.40;99.90;;;;;;5071869;28;20521;-84
2023/09/03 09:27:14;;;;;;;24.93;22.27;;;19.50;99.90;;;;;;5078923;28;20451;-86
2023/09/03 09:29:41;;;;;;;26.87;24.03;;;19.50;99.90;;;;;;5079453;28;20517;-84
2023/09/03 09:32:18;;;;;;;25.73;23.10;;;19.50;99.90;;;;;;5080124;28;20554;-85
2023/09/03 09:34:45;;;;;;;24.37;21.97;;;19.60;99.90;;;;;;5079473;28;20454;-84
2023/09/03 09:37:12;;;;;;;24.83;22.23;;;19.80;99.90;;;;;;5079704;28;20447;-83
2023/09/03 09:39:44;;;;;;;24.37;21.97;;;19.90;99.90;;;;;;5080083;28;20482;-84
2023/09/03 09:42:13;;;;;;;22.00;19.80;;;20.00;99.90;;;;;;5080054;28;20446;-85
2023/09/03 09:44:40;;;;;;;22.20;19.80;;;20.20;99.90;;;;;;5080237;28;20466;-85
2023/09/03 09:47:16;;;;;;;21.60;19.30;;;20.50;99.90;;;;;;5079630;28;20516;-83
2023/09/03 09:49:45;;;;;;;20.47;18.40;;;20.70;99.90;;;;;;5080206;28;20991;-84
2023/09/03 09:52:12;;;;;;;22.70;20.23;;;20.90;99.90;;;;;;5079995;28;20465;-84
2023/09/03 09:54:40;;;;;;;21.03;19.03;;;21.10;99.90;;;;;;5080148;28;20447;-84
2023/09/03 09:57:13;;;;;;;22.20;20.00;;;21.30;99.90;;;;;;5080367;28;20455;-84
2023/09/03 09:59:41;;;;;;;19.67;17.97;;;21.40;99.90;;;;;;5085164;28;20505;-88
2023/09/03 10:02:12;;;;;;;19.20;17.20;;;21.60;99.90;;;;;;5081187;28;20475;-84
2023/09/03 10:04:42;;;;;;;18.80;17.00;;;21.70;99.90;;;;;;5077192;28;20943;-84
2023/09/03 10:07:09;;;;;;;21.63;19.50;;;22.00;99.90;;;;;;5079159;28;20497;-85
2023/09/03 10:09:36;;;;;;;20.17;18.20;;;22.10;99.90;;;;;;5080591;28;20558;-84
2023/09/03 10:12:04;;;;;;;17.57;15.83;;;22.30;99.90;;;;;;5082744;28;20455;-85
2023/09/03 10:14:32;;;;;;;15.90;14.17;;;22.40;99.90;;;;;;5081543;28;20499;-86
2023/09/03 10:17:02;;;;;;;15.73;14.13;;;22.60;99.90;;;;;;5079463;28;20448;-84
2023/09/03 10:19:36;;;;;;;16.73;15.00;;;22.90;99.90;;;;;;5075729;28;20477;-84
2023/09/03 10:22:03;;;;;;;13.90;12.70;;;23.10;99.90;;;;;;5077182;28;20447;-84
2023/09/03 10:24:31;;;;;;;12.67;11.40;;;23.10;99.90;;;;;;5077332;28;20478;-83
2023/09/03 10:27:03;;;;;;;12.87;11.63;;;23.20;99.90;;;;;;5070740;28;21017;-84
2023/09/03 10:32:05;;;;;;;10.10;9.10;;;23.50;99.90;;;;;;5074365;28;20502;-83
2023/09/03 10:34:34;;;;;;;8.90;8.00;;;23.60;99.90;;;;;;5080120;28;20457;-83
2023/09/03 10:37:09;;;;;;;6.60;5.57;;;23.70;99.90;;;;;;5082809;28;20473;-83
2023/09/03 10:39:37;;;;;;;6.10;4.90;;;23.80;99.90;;;;;;5076955;28;20805;-84
2023/09/03 10:42:26;;;;;;;6.90;5.83;;;23.90;99.90;;;;;;5072147;28;20960;-83
2023/09/03 10:44:55;;;;;;;10.57;9.40;;;24.00;99.90;;;;;;5071081;28;20447;-82
2023/09/03 10:47:24;;;;;;;8.13;7.27;;;23.90;99.90;;;;;;5075148;28;20482;-85
2023/09/03 10:49:52;;;;;;;9.17;6.47;;;24.10;99.90;;;;;;5074307;28;20479;-84
2023/09/03 10:52:37;;;;;;;7.93;7.13;;;24.20;99.90;;;;;;5078033;28;20545;-85
2023/09/03 10:55:15;;;;;;;8.43;6.20;;;24.30;99.90;;;;;;5077144;28;20458;-84
2023/09/03 10:57:43;;;;;;;5.07;4.57;;;24.50;99.90;;;;;;5075759;28;20454;-83
2023/09/03 11:00:13;;;;;;;4.07;3.67;;;24.40;99.90;;;;;;5078717;28;20540;-84
2023/09/03 11:02:41;;;;;;;4.83;4.07;;;24.40;99.90;;;;;;5073447;28;20946;-83
2023/09/03 11:05:13;;;;;;;5.77;5.17;;;24.40;99.90;;;;;;5073456;28;20462;-85
2023/09/03 11:07:42;;;;;;;10.70;8.73;;;24.60;99.90;;;;;;5076748;28;20517;-84
2023/09/03 11:10:40;;;;;;;10.70;9.40;;;24.60;99.90;;;;;;5072274;28;20477;-85
2023/09/03 11:13:11;;;;;;;11.07;9.43;;;24.60;99.90;;;;;;5071264;28;20538;-84
2023/09/03 11:15:47;;;;;;;10.40;9.43;;;24.50;99.90;;;;;;5073421;28;20981;-85
2023/09/03 11:18:19;;;;;;;15.37;8.80;;;24.50;99.90;;;;;;5063886;28;20509;-84
2023/09/03 11:20:47;;;;;;;11.77;8.87;;;24.50;99.90;;;;;;5071317;28;20470;-84
2023/09/03 11:23:15;;;;;;;8.20;6.87;;;24.70;99.90;;;;;;5056880;28;20447;-84
2023/09/03 11:25:42;;;;;;;10.50;6.90;;;24.60;99.90;;;;;;5056290;28;20452;-84
2023/09/03 11:28:12;;;;;;;7.73;6.93;;;24.80;99.90;;;;;;5059476;28;20452;-84
2023/09/03 11:30:40;;;;;;;7.37;5.93;;;24.90;99.90;;;;;;5073501;28;20482;-84
2023/09/03 11:33:08;;;;;;;7.30;6.60;;;25.00;99.90;;;;;;5076645;28;20533;-84
2023/09/03 11:35:47;;;;;;;6.80;5.80;;;25.20;99.90;;;;;;5076298;28;20490;-85
2023/09/03 11:38:14;;;;;;;5.80;4.90;;;25.10;99.90;;;;;;5077314;28;20512;-85
2023/09/03 11:40:41;;;;;;;7.17;6.47;;;25.00;99.90;;;;;;5061936;28;20551;-83
2023/09/03 11:43:10;;;;;;;7.07;5.70;;;25.10;99.90;;;;;;5073023;28;20451;-83
2023/09/03 11:45:37;;;;;;;8.63;6.00;;;25.30;99.90;;;;;;5075629;28;20523;-84
2023/09/03 11:48:07;;;;;;;7.40;6.67;;;25.20;99.90;;;;;;5076528;28;20541;-84
2023/09/03 11:50:34;;;;;;;8.23;6.17;;;25.30;99.90;;;;;;5065949;28;20517;-83
2023/09/03 11:53:05;;;;;;;7.17;6.23;;;25.50;99.90;;;;;;5077593;28;20454;-82
2023/09/03 11:55:36;;;;;;;5.90;5.07;;;25.70;99.90;;;;;;5066065;28;20534;-83
2023/09/03 11:58:06;;;;;;;5.13;4.63;;;25.90;99.90;;;;;;5080957;28;20478;-83
2023/09/03 12:00:33;;;;;;;6.50;5.90;;;25.90;99.90;;;;;;5070627;28;20467;-84
2023/09/03 12:03:01;;;;;;;6.07;4.83;;;25.80;99.90;;;;;;5079087;28;20459;-82
2023/09/03 12:05:28;;;;;;;6.10;5.50;;;25.60;99.90;;;;;;5083769;28;20545;-80
2023/09/03 12:08:03;;;;;;;5.40;4.90;;;25.50;99.90;;;;;;5086612;28;20543;-77
2023/09/03 12:10:30;;;;;;;6.53;4.50;;;25.50;99.90;;;;;;5066722;28;20486;-83
2023/09/03 12:12:59;;;;;;;7.13;3.80;;;25.30;99.90;;;;;;5077335;28;20868;-83
2023/09/03 12:15:26;;;;;;;5.10;3.77;;;25.20;99.90;;;;;;5060388;28;20452;-83
2023/09/03 12:17:53;;;;;;;4.47;3.80;;;25.00;99.90;;;;;;5069437;28;20902;-82
2023/09/03 12:20:33;;;;;;;5.03;3.00;;;24.90;99.90;;;;;;5080475;28;20841;-82
2023/09/03 12:23:09;;;;;;;3.80;3.00;;;24.90;99.90;;;;;;5062803;28;20451;-83
2023/09/03 12:25:37;;;;;;;5.80;4.63;;;25.00;99.90;;;;;;5063392;28;20531;-82
2023/09/03 12:28:05;;;;;;;7.80;5.90;;;24.90;99.90;;;;;;5080453;28;20479;-82
2023/09/03 12:30:57;;;;;;;7.57;5.93;;;24.90;99.90;;;;;;5078805;28;20474;-82
2023/09/03 12:33:28;;;;;;;6.10;5.50;;;24.90;99.90;;;;;;5064097;28;20482;-84
2023/09/03 12:36:05;;;;;;;4.90;3.97;;;24.90;99.90;;;;;;5069927;28;20501;-82
2023/09/03 12:38:51;;;;;;;6.93;5.50;;;24.90;99.90;;;;;;5059520;28;20451;-82
2023/09/03 12:41:18;;;;;;;7.33;5.63;;;24.90;99.90;;;;;;5079748;28;20466;-82